createdAt,value
2023-11-03T00:00:10.115Z,1.60
2023-11-03T00:02:36.823Z,1.39
2023-11-03T00:05:06.094Z,1.29
2023-11-03T00:07:33.627Z,1.50
2023-11-03T00:10:01.346Z,1.43
2023-11-03T00:12:28.262Z,1.47
2023-11-03T00:14:54.813Z,1.26
2023-11-03T00:17:21.444Z,1.41
2023-11-03T00:19:48.236Z,1.49
2023-11-03T00:22:14.917Z,1.33
2023-11-03T00:24:42.125Z,1.32
2023-11-03T00:27:09.253Z,1.37
2023-11-03T00:29:35.957Z,1.20
2023-11-03T00:32:04.433Z,1.22
2023-11-03T00:34:30.995Z,1.15
2023-11-03T00:36:57.649Z,1.22
2023-11-03T00:39:24.208Z,1.36
2023-11-03T00:41:52.606Z,1.21
2023-11-03T00:44:20.132Z,1.20
2023-11-03T00:46:47.598Z,1.23
2023-11-03T00:49:15.424Z,1.20
2023-11-03T00:51:42.277Z,1.27
2023-11-03T00:54:10.604Z,1.21
2023-11-03T00:56:38.678Z,1.24
2023-11-03T00:59:05.307Z,1.19
2023-11-03T01:01:32.959Z,1.39
2023-11-03T01:03:59.656Z,1.30
2023-11-03T01:06:26.317Z,1.36
2023-11-03T01:08:53.365Z,1.24
2023-11-03T01:11:27.475Z,1.09
2023-11-03T01:13:54.808Z,1.28
2023-11-03T01:16:23.752Z,1.32
2023-11-03T01:18:51.018Z,1.31
2023-11-03T01:21:19.301Z,1.34
2023-11-03T01:23:48.547Z,1.34
2023-11-03T01:26:16.568Z,1.34
2023-11-03T01:28:43.500Z,1.47
2023-11-03T01:31:11.928Z,1.53
2023-11-03T01:33:42.121Z,1.44
2023-11-03T01:36:09.579Z,1.34
2023-11-03T01:38:36.466Z,1.41
2023-11-03T01:41:04.021Z,1.55
2023-11-03T01:43:31.365Z,1.59
2023-11-03T01:46:01.175Z,1.43
2023-11-03T01:48:29.707Z,1.57
2023-11-03T01:50:59.880Z,1.55
2023-11-03T01:53:28.817Z,1.70
2023-11-03T01:55:57.561Z,1.69
2023-11-03T01:58:24.545Z,1.55
2023-11-03T02:00:51.712Z,1.79
2023-11-03T02:03:18.358Z,1.84
2023-11-03T02:05:45.838Z,1.74
2023-11-03T02:08:12.485Z,1.53
2023-11-03T02:10:43.264Z,1.45
2023-11-03T02:13:11.832Z,1.52
2023-11-03T02:15:42.840Z,1.45
2023-11-03T02:18:11.638Z,1.46
2023-11-03T02:20:38.306Z,1.60
2023-11-03T02:23:05.361Z,1.62
2023-11-03T02:25:32.286Z,1.47
2023-11-03T02:27:59.327Z,1.45
2023-11-03T02:30:26.937Z,1.42
2023-11-03T02:32:53.824Z,1.37
2023-11-03T02:35:20.906Z,1.43
2023-11-03T02:37:47.724Z,1.28
2023-11-03T02:40:15.404Z,1.46
2023-11-03T02:42:42.328Z,1.42
2023-11-03T02:45:11.227Z,1.42
2023-11-03T02:47:37.904Z,1.46
2023-11-03T02:50:05.294Z,1.46
2023-11-03T02:52:31.962Z,1.37
2023-11-03T02:54:58.596Z,1.31
2023-11-03T02:57:25.427Z,1.37
2023-11-03T02:59:52.028Z,1.43
2023-11-03T03:02:18.613Z,1.27
2023-11-03T03:04:46.293Z,1.30
2023-11-03T03:07:13.415Z,1.58
2023-11-03T03:09:40.046Z,1.45
2023-11-03T03:12:06.801Z,1.36
2023-11-03T03:14:34.157Z,1.22
2023-11-03T03:17:01.632Z,1.31
2023-11-03T03:19:28.436Z,1.16
2023-11-03T03:21:55.156Z,1.21
2023-11-03T03:24:21.767Z,1.23
2023-11-03T03:26:48.313Z,1.28
2023-11-03T03:29:14.945Z,1.10
2023-11-03T03:31:41.527Z,1.20
2023-11-03T03:34:08.366Z,1.27
2023-11-03T03:36:35.338Z,1.20
2023-11-03T03:39:02.125Z,1.16
2023-11-03T03:41:28.745Z,1.12
2023-11-03T03:43:55.356Z,1.07
2023-11-03T03:46:22.375Z,1.02
2023-11-03T03:48:49.158Z,0.95
2023-11-03T03:51:15.783Z,1.00
2023-11-03T03:53:42.495Z,0.87
2023-11-03T03:56:09.359Z,0.91
2023-11-03T03:58:39.536Z,0.88
2023-11-03T04:01:06.462Z,0.84
2023-11-03T04:03:33.130Z,0.93
2023-11-03T04:05:59.777Z,0.84
2023-11-03T04:08:26.570Z,0.74
2023-11-03T04:10:53.195Z,0.78
2023-11-03T04:13:20.083Z,0.83
2023-11-03T04:15:46.817Z,0.76
2023-11-03T04:18:13.461Z,0.78
2023-11-03T04:20:40.221Z,0.86
2023-11-03T04:23:07.396Z,0.90
2023-11-03T04:25:33.928Z,0.87
2023-11-03T04:28:00.546Z,0.91
2023-11-03T04:30:27.165Z,0.88
2023-11-03T04:32:53.859Z,1.05
2023-11-03T04:35:20.530Z,1.18
2023-11-03T04:37:50.957Z,1.15
2023-11-03T04:40:20.366Z,1.24
2023-11-03T04:42:47.017Z,1.22
2023-11-03T04:45:13.664Z,1.21
2023-11-03T04:47:40.247Z,1.41
2023-11-03T04:50:07.928Z,1.45
2023-11-03T04:52:40.722Z,1.41
2023-11-03T04:55:10.454Z,1.25
2023-11-03T04:57:37.425Z,1.40
2023-11-03T05:00:09.982Z,1.35
2023-11-03T05:02:37.382Z,1.29
2023-11-03T05:05:07.752Z,1.27
2023-11-03T05:07:35.382Z,1.35
2023-11-03T05:10:02.039Z,1.40
2023-11-03T05:12:28.663Z,1.16
2023-11-03T05:14:55.219Z,1.23
2023-11-03T05:17:22.226Z,1.18
2023-11-03T05:19:49.935Z,1.27
2023-11-03T05:22:16.679Z,1.22
2023-11-03T05:24:47.170Z,1.24
2023-11-03T05:27:14.383Z,1.11
2023-11-03T05:29:41.242Z,1.17
2023-11-03T05:32:08.042Z,1.27
2023-11-03T05:34:35.752Z,1.16
2023-11-03T05:37:02.821Z,1.41
2023-11-03T05:39:29.528Z,1.41
2023-11-03T05:41:56.170Z,1.34
2023-11-03T05:44:22.796Z,1.53
2023-11-03T05:46:49.357Z,1.46
2023-11-03T05:49:16.253Z,1.56
2023-11-03T05:51:43.510Z,1.56
2023-11-03T05:54:10.287Z,1.54
2023-11-03T05:56:36.904Z,1.63
2023-11-03T05:59:04.635Z,1.46
2023-11-03T06:01:34.432Z,1.68
2023-11-03T06:04:01.539Z,1.80
2023-11-03T06:06:28.906Z,1.73
2023-11-03T06:08:56.525Z,1.89
2023-11-03T06:11:23.961Z,1.83
2023-11-03T06:13:50.738Z,1.96
2023-11-03T06:16:21.863Z,1.85
2023-11-03T06:18:52.036Z,2.10
2023-11-03T06:21:21.078Z,1.90
2023-11-03T06:23:47.711Z,1.98
2023-11-03T06:26:14.334Z,1.87
2023-11-03T06:28:40.949Z,2.02
2023-11-03T06:31:08.801Z,2.00
2023-11-03T06:33:35.420Z,2.40
2023-11-03T06:36:03.286Z,2.14
2023-11-03T06:38:32.877Z,2.24
2023-11-03T06:40:59.555Z,2.07
2023-11-03T06:43:26.249Z,2.11
2023-11-03T06:45:52.897Z,2.15
2023-11-03T06:48:19.491Z,2.34
2023-11-03T06:50:46.081Z,2.27
2023-11-03T06:53:13.102Z,2.48
2023-11-03T06:55:39.719Z,2.56
2023-11-03T06:58:06.360Z,2.66
2023-11-03T07:00:33.710Z,2.74
2023-11-03T07:03:01.348Z,2.94
2023-11-03T07:05:27.950Z,2.99
2023-11-03T07:07:55.019Z,3.11
2023-11-03T07:10:23.096Z,3.03
2023-11-03T07:12:50.139Z,3.07
2023-11-03T07:15:17.562Z,2.90
2023-11-03T07:17:44.787Z,3.08
2023-11-03T07:20:11.828Z,3.08
2023-11-03T07:22:38.856Z,3.01
2023-11-03T07:25:06.020Z,3.01
2023-11-03T07:27:33.336Z,2.87
2023-11-03T07:29:59.910Z,2.97
2023-11-03T07:32:26.540Z,3.41
2023-11-03T07:34:55.306Z,3.35
2023-11-03T07:37:22.024Z,3.25
2023-11-03T07:39:50.827Z,3.17
2023-11-03T07:42:17.448Z,3.32
2023-11-03T07:44:44.077Z,3.13
2023-11-03T07:47:11.700Z,3.16
2023-11-03T07:49:38.646Z,3.01
2023-11-03T07:52:06.903Z,2.93
2023-11-03T07:54:34.037Z,2.96
2023-11-03T07:57:03.259Z,2.89
2023-11-03T07:59:30.169Z,2.91
2023-11-03T08:01:57.731Z,2.63
2023-11-03T08:04:25.073Z,2.51
2023-11-03T08:06:52.042Z,2.58
2023-11-03T08:09:18.995Z,2.41
2023-11-03T08:11:45.587Z,2.23
2023-11-03T08:14:12.186Z,2.23
2023-11-03T08:16:45.002Z,2.25
2023-11-03T08:19:14.046Z,2.29
2023-11-03T08:21:43.803Z,2.20
2023-11-03T08:24:14.596Z,2.08
2023-11-03T08:26:41.991Z,2.01
2023-11-03T08:29:14.101Z,2.00
2023-11-03T08:31:43.437Z,1.76
2023-11-03T08:34:12.270Z,2.36
2023-11-03T08:36:39.009Z,2.30
2023-11-03T08:39:20.361Z,2.43
2023-11-03T08:41:55.598Z,2.43
2023-11-03T08:44:24.170Z,2.19
2023-11-03T08:46:51.497Z,2.01
2023-11-03T08:49:18.136Z,2.47
2023-11-03T08:51:44.691Z,1.89
2023-11-03T08:54:11.648Z,2.19
2023-11-03T08:56:40.064Z,2.30
2023-11-03T08:59:06.670Z,1.88
2023-11-03T09:01:34.562Z,2.30
2023-11-03T09:04:02.888Z,2.17
2023-11-03T09:06:29.800Z,2.04
2023-11-03T09:08:56.822Z,2.09
2023-11-03T09:11:23.370Z,2.07
2023-11-03T09:13:54.192Z,2.31
2023-11-03T09:16:23.986Z,2.18
2023-11-03T09:18:53.864Z,2.02
2023-11-03T09:21:20.894Z,2.16
2023-11-03T09:23:48.636Z,2.09
2023-11-03T09:26:15.299Z,2.17
2023-11-03T09:28:42.024Z,2.31
2023-11-03T09:31:08.688Z,2.16
2023-11-03T09:33:35.992Z,2.06
2023-11-03T09:36:04.319Z,2.23
2023-11-03T09:38:32.397Z,2.48
2023-11-03T09:40:59.594Z,2.46
2023-11-03T09:43:26.493Z,2.22
2023-11-03T09:45:53.621Z,2.26
2023-11-03T09:48:21.286Z,2.21
2023-11-03T09:50:48.931Z,2.57
2023-11-03T09:53:22.760Z,2.15
2023-11-03T09:55:49.788Z,2.12
2023-11-03T09:58:16.853Z,2.25
2023-11-03T10:00:43.477Z,2.19
2023-11-03T10:03:10.155Z,2.23
2023-11-03T10:05:38.511Z,2.54
2023-11-03T10:08:06.254Z,2.44
2023-11-03T10:10:35.967Z,2.22
2023-11-03T10:13:05.330Z,2.25
2023-11-03T10:15:33.225Z,2.33
2023-11-03T10:18:00.137Z,2.27
2023-11-03T10:20:26.901Z,2.30
2023-11-03T10:22:53.684Z,2.30
2023-11-03T10:25:20.478Z,2.08
2023-11-03T10:27:52.883Z,2.31
2023-11-03T10:30:20.356Z,2.05
2023-11-03T10:32:47.175Z,2.48
2023-11-03T10:35:14.718Z,2.28
2023-11-03T10:37:42.750Z,2.64
2023-11-03T10:40:19.683Z,2.19
2023-11-03T10:42:51.083Z,2.30
2023-11-03T10:45:22.156Z,2.22
2023-11-03T10:48:06.216Z,2.23
2023-11-03T10:50:36.808Z,2.13
2023-11-03T10:53:14.434Z,2.11
2023-11-03T10:55:50.664Z,2.32
2023-11-03T10:58:18.818Z,2.52
2023-11-03T11:00:57.474Z,2.34
2023-11-03T11:03:47.007Z,2.22
2023-11-03T11:06:21.825Z,2.15
2023-11-03T11:08:54.795Z,2.19
2023-11-03T11:11:21.432Z,2.03
2023-11-03T11:13:47.987Z,2.00
2023-11-03T11:16:14.841Z,2.29
2023-11-03T11:18:46.889Z,2.32
2023-11-03T11:21:24.054Z,2.19
2023-11-03T11:23:50.660Z,1.98
2023-11-03T11:28:51.369Z,2.16
2023-11-03T11:31:24.150Z,2.10
2023-11-03T11:34:04.516Z,2.25
2023-11-03T11:36:34.912Z,1.99
2023-11-03T11:39:16.330Z,2.01
2023-11-03T11:41:49.373Z,2.02
2023-11-03T11:44:21.769Z,2.42
2023-11-03T11:46:56.186Z,2.28
2023-11-03T11:49:28.706Z,2.27
2023-11-03T11:51:57.060Z,2.18
2023-11-03T11:54:24.631Z,2.05
2023-11-03T11:56:51.549Z,1.99
2023-11-03T11:59:21.023Z,2.14
2023-11-03T12:01:49.019Z,2.28
2023-11-03T12:04:16.859Z,2.09
2023-11-03T12:06:44.861Z,2.22
2023-11-03T12:09:12.978Z,2.25
2023-11-03T12:11:41.289Z,1.96
2023-11-03T12:14:08.934Z,1.86
2023-11-03T12:16:36.538Z,2.07
2023-11-03T12:19:04.094Z,1.90
2023-11-03T12:21:31.180Z,2.00
2023-11-03T12:24:00.080Z,2.12
2023-11-03T12:26:30.975Z,2.03
2023-11-03T12:29:28.577Z,2.00
2023-11-03T12:32:00.843Z,1.92
2023-11-03T12:34:28.158Z,2.15
2023-11-03T12:36:59.881Z,2.10
2023-11-03T12:39:27.525Z,1.69
2023-11-03T12:42:05.801Z,1.92
2023-11-03T12:44:49.136Z,2.02
2023-11-03T12:47:46.569Z,2.34
2023-11-03T12:50:17.904Z,1.97
2023-11-03T12:53:05.065Z,2.28
2023-11-03T12:55:35.782Z,2.02
2023-11-03T12:58:09.715Z,2.05
2023-11-03T13:00:37.865Z,1.99
2023-11-03T13:03:05.239Z,1.95
2023-11-03T13:05:31.845Z,1.95
2023-11-03T13:08:01.972Z,1.87
2023-11-03T13:10:31.975Z,2.04
2023-11-03T13:12:58.753Z,2.11
2023-11-03T13:15:25.539Z,2.17
2023-11-03T13:17:54.056Z,1.90
2023-11-03T13:20:21.151Z,2.31
2023-11-03T13:23:03.175Z,1.84
2023-11-03T13:25:30.287Z,2.12
2023-11-03T13:27:57.811Z,2.23
2023-11-03T13:30:24.512Z,2.12
2023-11-03T13:32:51.800Z,2.05
2023-11-03T13:35:19.954Z,1.95
2023-11-03T13:37:46.801Z,2.12
2023-11-03T13:40:14.766Z,2.08
2023-11-03T13:42:41.387Z,2.13
2023-11-03T13:45:10.701Z,1.99
2023-11-03T13:47:38.180Z,1.98
2023-11-03T13:50:14.580Z,1.83
2023-11-03T13:52:45.737Z,2.00
2023-11-03T13:55:14.501Z,2.31
2023-11-03T13:57:42.065Z,1.91
2023-11-03T14:00:13.905Z,1.79
2023-11-03T14:02:41.122Z,2.13
2023-11-03T14:05:08.977Z,1.90
2023-11-03T14:07:35.760Z,1.95
2023-11-03T14:10:06.509Z,1.80
2023-11-03T14:12:33.729Z,1.83
2023-11-03T14:15:00.590Z,1.75
2023-11-03T14:17:27.162Z,1.64
2023-11-03T14:19:53.727Z,1.71
2023-11-03T14:22:22.036Z,1.57
2023-11-03T14:24:48.722Z,1.87
2023-11-03T14:27:18.987Z,1.65
2023-11-03T14:29:47.250Z,1.84
2023-11-03T14:32:17.372Z,1.75
2023-11-03T14:34:43.982Z,1.93
2023-11-03T14:37:11.477Z,2.04
2023-11-03T14:39:39.970Z,1.70
2023-11-03T14:42:06.659Z,1.70
2023-11-03T14:44:37.437Z,1.74
2023-11-03T14:47:04.294Z,1.76
2023-11-03T14:49:31.047Z,1.93
2023-11-03T14:51:57.807Z,1.76
2023-11-03T14:54:24.392Z,1.66
2023-11-03T14:56:51.839Z,1.61
2023-11-03T14:59:19.149Z,1.88
2023-11-03T15:01:46.745Z,1.77
2023-11-03T15:04:13.493Z,1.78
2023-11-03T15:06:40.110Z,1.81
2023-11-03T15:09:06.695Z,1.79
2023-11-03T15:11:33.725Z,1.55
2023-11-03T15:14:00.724Z,1.59
2023-11-03T15:16:31.606Z,1.69
2023-11-03T15:18:59.850Z,1.64
2023-11-03T15:21:26.692Z,1.74
2023-11-03T15:23:53.511Z,1.63
2023-11-03T15:26:20.270Z,1.58
2023-11-03T15:28:46.893Z,1.44
2023-11-03T15:31:13.576Z,1.60
2023-11-03T15:33:40.368Z,1.71
2023-11-03T15:36:08.870Z,1.59
2023-11-03T15:38:36.607Z,1.59
2023-11-03T15:41:04.396Z,1.54
2023-11-03T15:43:31.359Z,1.74
2023-11-03T15:46:00.005Z,1.71
2023-11-03T15:48:29.046Z,1.65
2023-11-03T15:50:55.994Z,1.74
2023-11-03T15:53:23.166Z,1.71
2023-11-03T15:55:51.608Z,1.70
2023-11-03T15:58:20.027Z,1.84
2023-11-03T16:00:56.454Z,1.82
2023-11-03T16:03:23.760Z,1.64
2023-11-03T16:05:51.229Z,1.78
2023-11-03T16:08:18.243Z,1.83
2023-11-03T16:10:46.114Z,1.65
2023-11-03T16:13:14.940Z,1.72
2023-11-03T16:15:42.398Z,1.74
2023-11-03T16:18:09.319Z,2.01
2023-11-03T16:20:37.194Z,2.04
2023-11-03T16:23:03.889Z,1.78
2023-11-03T16:25:30.531Z,1.82
2023-11-03T16:27:57.837Z,1.70
2023-11-03T16:30:24.469Z,2.07
2023-11-03T16:32:52.792Z,1.96
2023-11-03T16:35:19.746Z,1.91
2023-11-03T16:37:46.345Z,1.99
2023-11-03T16:40:13.697Z,1.84
2023-11-03T16:42:40.438Z,1.96
2023-11-03T16:45:11.036Z,2.51
2023-11-03T16:47:38.826Z,2.67
2023-11-03T16:50:10.092Z,2.35
2023-11-03T16:52:39.136Z,2.34
2023-11-03T16:55:08.353Z,1.99
2023-11-03T16:57:35.378Z,2.05
2023-11-03T17:00:12.600Z,2.02
2023-11-03T17:02:46.075Z,1.81
2023-11-03T17:05:15.863Z,2.23
2023-11-03T17:07:43.745Z,2.18
2023-11-03T17:10:11.242Z,2.23
2023-11-03T17:12:53.473Z,2.16
2023-11-03T17:15:27.520Z,2.03
2023-11-03T17:17:54.117Z,2.05
2023-11-03T17:20:21.810Z,1.93
2023-11-03T17:22:48.805Z,1.87
2023-11-03T17:25:16.658Z,1.91
2023-11-03T17:27:43.690Z,2.03
2023-11-03T17:30:15.509Z,1.83
2023-11-03T17:32:49.028Z,2.13
2023-11-03T17:35:21.567Z,1.93
2023-11-03T17:37:49.033Z,1.95
2023-11-03T17:40:18.225Z,1.88
2023-11-03T17:42:45.203Z,2.12
2023-11-03T17:45:14.345Z,2.20
2023-11-03T17:47:40.926Z,1.90
2023-11-03T17:50:07.692Z,1.95
2023-11-03T17:52:34.299Z,1.86
2023-11-03T17:55:02.115Z,1.99
2023-11-03T17:57:28.673Z,1.84
2023-11-03T17:59:55.223Z,1.83
2023-11-03T18:02:21.768Z,1.83
2023-11-03T18:04:49.283Z,1.83
2023-11-03T18:07:16.999Z,1.83
2023-11-03T18:09:43.629Z,1.79
2023-11-03T18:12:11.196Z,1.82
2023-11-03T18:14:37.761Z,2.05
2023-11-03T18:17:04.578Z,2.83
2023-11-03T18:19:31.224Z,2.86
2023-11-03T18:21:57.789Z,3.35
2023-11-03T18:24:24.414Z,3.20
2023-11-03T18:26:50.976Z,2.83
2023-11-03T18:29:17.646Z,2.51
2023-11-03T18:31:47.388Z,2.20
2023-11-03T18:34:14.160Z,2.15
2023-11-03T18:36:40.829Z,1.76
2023-11-03T18:39:08.325Z,1.97
2023-11-03T18:41:34.967Z,1.78
2023-11-03T18:44:02.638Z,1.72
2023-11-03T18:46:29.343Z,1.59
2023-11-03T18:48:56.056Z,1.58
2023-11-03T18:51:27.682Z,1.56
2023-11-03T18:55:23.345Z,1.63
2023-11-03T19:02:18.674Z,1.89
2023-11-03T19:05:35.504Z,1.62
2023-11-03T19:07:34.483Z,1.77
2023-11-03T19:10:06.875Z,1.88
2023-11-03T19:12:33.604Z,1.94
2023-11-03T19:15:00.558Z,2.05
2023-11-03T19:17:27.436Z,1.99
2023-11-03T19:19:54.146Z,1.90
2023-11-03T19:22:20.770Z,2.08
2023-11-03T19:24:47.338Z,2.33
2023-11-03T19:27:14.003Z,2.33
2023-11-03T19:29:43.434Z,2.30
2023-11-03T19:32:10.476Z,2.12
2023-11-03T19:34:43.648Z,2.21
2023-11-03T19:37:11.852Z,2.19
2023-11-03T19:39:39.160Z,2.44
2023-11-03T19:42:06.463Z,2.59
2023-11-03T19:44:33.158Z,2.58
2023-11-03T19:46:59.930Z,2.88
2023-11-03T19:49:27.122Z,2.63
2023-11-03T19:51:53.803Z,2.76
2023-11-03T19:54:20.379Z,3.04
2023-11-03T19:56:47.006Z,2.90
2023-11-03T19:59:13.560Z,2.68
2023-11-03T20:01:40.109Z,2.87
2023-11-03T20:04:06.853Z,2.88
2023-11-03T20:06:33.578Z,2.71
2023-11-03T20:09:00.246Z,2.63
2023-11-03T20:11:26.823Z,2.85
2023-11-03T20:13:53.402Z,2.60
2023-11-03T20:16:21.398Z,2.64
2023-11-03T20:18:48.198Z,2.47
2023-11-03T20:21:14.873Z,2.45
2023-11-03T20:23:41.482Z,2.53
2023-11-03T20:26:08.131Z,2.82
2023-11-03T20:28:35.595Z,2.53
2023-11-03T20:31:05.298Z,2.72
2023-11-03T20:33:32.056Z,2.68
2023-11-03T20:36:00.883Z,2.66
2023-11-03T20:38:27.552Z,2.88
2023-11-03T20:40:56.856Z,2.89
2023-11-03T20:43:24.112Z,2.84
2023-11-03T20:45:50.808Z,2.92
2023-11-03T20:48:18.538Z,3.05
2023-11-03T20:50:45.953Z,3.07
2023-11-03T20:53:12.644Z,3.15
2023-11-03T20:55:39.929Z,3.23
2023-11-03T20:58:06.477Z,3.11
2023-11-03T21:00:33.076Z,3.28
2023-11-03T21:02:59.905Z,3.22
2023-11-03T21:05:27.084Z,3.40
2023-11-03T21:07:54.273Z,3.23
2023-11-03T21:10:21.556Z,3.48
2023-11-03T21:12:48.730Z,3.40
2023-11-03T21:15:15.407Z,3.38
2023-11-03T21:17:42.295Z,3.21
2023-11-03T21:20:12.418Z,3.43
2023-11-03T21:22:39.223Z,3.08
2023-11-03T21:25:08.833Z,3.10
2023-11-03T21:27:36.186Z,3.04
2023-11-03T21:30:04.341Z,3.13
2023-11-03T21:32:36.076Z,2.99
2023-11-03T21:35:09.940Z,3.07
2023-11-03T21:37:36.796Z,3.06
2023-11-03T21:40:04.027Z,2.81
2023-11-03T21:42:31.428Z,2.84
2023-11-03T21:44:58.349Z,2.86
2023-11-03T21:47:26.224Z,2.95
2023-11-03T21:49:52.877Z,3.08
2023-11-03T21:52:19.707Z,3.11
2023-11-03T21:54:46.367Z,2.86
2023-11-03T21:57:13.707Z,2.92
2023-11-03T21:59:40.362Z,3.03
2023-11-03T22:02:06.893Z,3.00
2023-11-03T22:04:33.798Z,2.93
2023-11-03T22:07:00.554Z,2.90
2023-11-03T22:09:27.267Z,2.91
2023-11-03T22:11:53.876Z,3.01
2023-11-03T22:14:20.518Z,2.96
2023-11-03T22:16:47.304Z,2.88
2023-11-03T22:19:14.506Z,3.05
2023-11-03T22:21:41.274Z,2.94
2023-11-03T22:24:08.302Z,2.98
2023-11-03T22:26:39.950Z,2.87
2023-11-03T22:29:11.262Z,3.05
2023-11-03T22:31:46.530Z,3.03
2023-11-03T22:34:14.502Z,2.95
2023-11-03T22:36:41.639Z,3.00
2023-11-03T22:39:09.275Z,2.76
2023-11-03T22:41:36.545Z,2.91
2023-11-03T22:44:06.130Z,2.96
2023-11-03T22:46:32.731Z,2.98
2023-11-03T22:48:59.412Z,2.59
2023-11-03T22:51:26.092Z,2.90
2023-11-03T22:53:54.553Z,2.84
2023-11-03T22:56:23.169Z,2.82
2023-11-03T22:58:50.683Z,2.83
2023-11-03T23:01:18.154Z,2.61
2023-11-03T23:03:45.771Z,2.75
2023-11-03T23:06:15.746Z,2.83
2023-11-03T23:08:42.477Z,2.54
2023-11-03T23:11:10.121Z,2.48
2023-11-03T23:13:37.038Z,2.86
2023-11-03T23:16:04.668Z,2.86
2023-11-03T23:18:32.039Z,2.80
2023-11-03T23:20:58.699Z,2.57
2023-11-03T23:23:25.833Z,2.51
2023-11-03T23:25:52.400Z,2.50
2023-11-03T23:28:19.034Z,2.49
2023-11-03T23:30:45.899Z,2.55
2023-11-03T23:33:12.934Z,2.32
2023-11-03T23:35:39.690Z,2.35
2023-11-03T23:38:06.293Z,2.38
2023-11-03T23:40:32.942Z,2.21
2023-11-03T23:42:59.588Z,2.50
2023-11-03T23:45:26.369Z,2.43
2023-11-03T23:47:52.985Z,2.30
2023-11-03T23:50:19.601Z,2.08
2023-11-03T23:52:46.190Z,2.15
2023-11-03T23:55:12.803Z,2.06
2023-11-03T23:57:39.514Z,2.18
